Time;durP1;ratioP1;P1;durP2;ratioP2;P2;SDS_P1;SDS_P2;PMS_P1;PMS_P2;Temp;Humidity;BMP_temperature;BMP_pressure;BME280_temperature;BME280_humidity;BME280_pressure;Samples;Min_cycle;Max_cycle;Signal;HPM_P1;HPM_P2
2022/09/05 00:02:45;;;;;;;5.20;3.60;;;19.40;99.90;;;;;;5074016;28;20494;-56
2022/09/05 00:05:28;;;;;;;3.87;3.57;;;19.60;99.90;;;;;;5071355;28;20796;-57
2022/09/05 00:08:02;;;;;;;4.60;3.37;;;19.30;99.90;;;;;;5073876;28;20429;-57
2022/09/05 00:10:40;;;;;;;3.80;3.50;;;19.10;99.90;;;;;;5073823;28;20519;-57
2022/09/05 00:13:15;;;;;;;4.73;3.20;;;18.90;99.90;;;;;;5073705;28;20915;-57
2022/09/05 00:15:57;;;;;;;6.20;4.20;;;18.90;99.90;;;;;;5073607;28;20517;-56
2022/09/05 00:18:51;;;;;;;4.80;3.70;;;19.10;99.90;;;;;;5073909;28;20789;-57
2022/09/05 00:21:32;;;;;;;3.80;3.50;;;19.20;99.90;;;;;;5073651;28;20974;-57
2022/09/05 00:24:12;;;;;;;4.90;3.60;;;19.10;99.90;;;;;;5073387;28;20854;-56
2022/09/05 00:26:51;;;;;;;4.90;3.50;;;19.40;99.90;;;;;;5073511;28;20425;-56
2022/09/05 00:29:32;;;;;;;3.30;3.03;;;19.40;99.90;;;;;;5073740;28;20431;-56
2022/09/05 00:32:05;;;;;;;3.87;3.10;;;19.20;99.90;;;;;;5073522;28;20470;-56
2022/09/05 00:35:00;;;;;;;3.83;3.43;;;18.80;99.90;;;;;;5073370;28;20476;-56
2022/09/05 00:37:33;;;;;;;3.70;3.40;;;18.70;99.90;;;;;;5073538;28;20427;-56
2022/09/05 00:40:18;;;;;;;3.20;3.00;;;19.00;99.90;;;;;;5073337;28;20992;-56
2022/09/05 00:42:49;;;;;;;4.47;4.07;;;18.80;99.90;;;;;;5073631;28;20542;-56
2022/09/05 00:45:23;;;;;;;3.80;3.40;;;19.00;99.90;;;;;;5073450;28;20425;-57
2022/09/05 00:47:59;;;;;;;6.57;3.33;;;19.20;99.90;;;;;;5073450;28;20476;-57
2022/09/05 00:50:34;;;;;;;3.83;3.33;;;19.70;99.90;;;;;;5073514;28;20447;-57
2022/09/05 00:53:06;;;;;;;9.50;3.60;;;19.30;99.90;;;;;;5073431;28;20429;-56
2022/09/05 00:55:40;;;;;;;4.43;3.70;;;18.90;99.90;;;;;;5073286;28;20880;-56
2022/09/05 00:58:40;;;;;;;4.67;3.17;;;18.80;99.90;;;;;;5073208;28;20439;-57
2022/09/05 01:01:25;;;;;;;4.40;3.97;;;18.90;99.90;;;;;;5072911;28;20979;-56
2022/09/05 01:04:04;;;;;;;4.27;3.13;;;18.60;99.90;;;;;;5073275;28;20424;-56
2022/09/05 01:06:44;;;;;;;3.67;3.37;;;18.60;99.90;;;;;;5073339;28;20516;-56
2022/09/05 01:09:36;;;;;;;4.50;4.10;;;18.40;99.90;;;;;;5072943;28;20919;-56
2022/09/05 01:12:31;;;;;;;5.50;3.23;;;18.30;99.90;;;;;;5073257;28;20472;-57
2022/09/05 01:15:14;;;;;;;7.03;3.20;;;18.30;99.90;;;;;;5072987;28;20947;-56
2022/09/05 01:18:14;;;;;;;3.77;3.47;;;18.70;99.90;;;;;;5072849;28;20425;-56
2022/09/05 01:21:09;;;;;;;5.10;3.40;;;18.80;99.90;;;;;;5070629;28;20996;-56
2022/09/05 01:23:49;;;;;;;3.60;3.30;;;18.70;99.90;;;;;;5073208;28;20436;-57
2022/09/05 01:26:53;;;;;;;3.90;3.37;;;19.10;99.90;;;;;;5073166;28;20511;-56
2022/09/05 01:29:27;;;;;;;4.13;3.43;;;18.80;99.90;;;;;;5036992;28;20462;-56
2022/09/05 01:32:14;;;;;;;4.30;3.50;;;18.70;99.90;;;;;;5073082;28;20539;-56
2022/09/05 01:35:02;;;;;;;4.17;3.50;;;18.70;99.90;;;;;;5073394;28;20433;-56
2022/09/05 01:37:36;;;;;;;4.33;3.70;;;18.60;99.90;;;;;;5076616;28;20471;-57
2022/09/05 01:40:22;;;;;;;7.07;3.80;;;18.50;99.90;;;;;;5077153;28;20432;-56
2022/09/05 01:43:04;;;;;;;3.43;3.13;;;18.30;99.90;;;;;;5076488;28;20546;-56
2022/09/05 01:45:47;;;;;;;4.03;3.70;;;18.50;99.90;;;;;;5076979;28;20431;-57
2022/09/05 01:48:25;;;;;;;3.50;3.20;;;18.80;99.90;;;;;;5076137;28;20475;-56
2022/09/05 01:51:02;;;;;;;4.77;3.70;;;18.80;99.90;;;;;;5076629;28;20466;-56
2022/09/05 01:53:38;;;;;;;4.40;4.00;;;18.70;99.90;;;;;;5076515;28;20511;-57
2022/09/05 01:56:32;;;;;;;7.13;3.47;;;18.70;99.90;;;;;;5076019;28;20468;-57
2022/09/05 01:59:13;;;;;;;3.53;3.07;;;18.80;99.90;;;;;;5076373;28;20527;-56
2022/09/05 02:02:01;;;;;;;4.40;3.90;;;18.70;99.90;;;;;;5076220;28;20449;-56
2022/09/05 02:05:07;;;;;;;4.87;4.03;;;18.60;99.90;;;;;;5076313;28;20440;-56
2022/09/05 02:07:50;;;;;;;4.70;3.67;;;18.50;99.90;;;;;;5053384;28;20443;-56
2022/09/05 02:10:38;;;;;;;4.20;3.80;;;18.30;99.90;;;;;;5076334;28;20435;-56
2022/09/05 02:13:16;;;;;;;5.47;3.50;;;18.10;99.90;;;;;;5066040;28;20939;-58
2022/09/05 02:15:46;;;;;;;3.83;3.53;;;18.00;99.90;;;;;;5075975;28;20471;-56
2022/09/05 02:18:22;;;;;;;3.80;3.47;;;18.10;99.90;;;;;;5075960;28;20429;-56
2022/09/05 02:20:56;;;;;;;4.07;3.77;;;18.40;99.90;;;;;;5075795;28;20448;-56
2022/09/05 02:23:38;;;;;;;4.60;3.60;;;18.50;99.90;;;;;;5075896;28;20405;-56
2022/09/05 02:26:12;;;;;;;5.93;3.60;;;18.50;99.90;;;;;;5075695;28;20779;-58
2022/09/05 02:28:45;;;;;;;4.00;3.60;;;18.60;99.90;;;;;;5076112;28;20447;-57
2022/09/05 02:31:19;;;;;;;3.20;2.90;;;18.60;99.90;;;;;;5076141;28;20483;-57
2022/09/05 02:33:53;;;;;;;3.67;3.30;;;18.20;99.90;;;;;;5075912;28;20428;-57
2022/09/05 02:36:30;;;;;;;4.70;3.60;;;18.00;99.90;;;;;;5075714;28;20543;-57
2022/09/05 02:39:04;;;;;;;4.73;3.70;;;17.90;99.90;;;;;;5075649;28;20409;-57
2022/09/05 02:41:38;;;;;;;8.20;3.43;;;17.90;99.90;;;;;;5075710;28;20717;-56
2022/09/05 02:44:12;;;;;;;4.40;4.00;;;17.80;99.90;;;;;;5075369;28;20524;-57
2022/09/05 02:46:49;;;;;;;3.87;3.57;;;17.70;99.90;;;;;;5074940;28;20833;-56
2022/09/05 02:49:26;;;;;;;4.30;3.90;;;17.60;99.90;;;;;;5075119;28;20502;-56
2022/09/05 02:51:59;;;;;;;4.93;3.90;;;17.50;99.90;;;;;;5075109;28;20513;-56
2022/09/05 02:54:31;;;;;;;4.00;3.70;;;17.50;99.90;;;;;;5075774;28;20512;-56
2022/09/05 02:57:20;;;;;;;9.87;4.70;;;17.50;99.90;;;;;;5075248;28;21000;-56
2022/09/05 03:00:03;;;;;;;4.03;3.63;;;17.50;99.90;;;;;;5075311;28;20791;-56
2022/09/05 03:02:40;;;;;;;4.30;3.90;;;17.60;99.90;;;;;;5075188;28;20475;-57
2022/09/05 03:05:14;;;;;;;3.43;3.13;;;17.90;99.90;;;;;;5074959;28;20429;-56
2022/09/05 03:08:11;;;;;;;3.97;3.67;;;18.10;99.90;;;;;;5074840;28;20431;-56
2022/09/05 03:11:05;;;;;;;4.13;3.43;;;18.30;99.90;;;;;;5075170;28;20514;-56
2022/09/05 03:14:07;;;;;;;4.30;3.37;;;18.50;99.90;;;;;;5075147;28;20449;-56
2022/09/05 03:17:20;;;;;;;5.00;3.90;;;18.30;99.90;;;;;;5074724;28;20516;-56
2022/09/05 03:20:34;;;;;;;4.80;3.73;;;18.10;99.90;;;;;;5075237;28;20521;-58
2022/09/05 03:23:27;;;;;;;4.50;4.10;;;17.90;99.90;;;;;;5074779;28;20524;-57
2022/09/05 03:26:32;;;;;;;11.80;3.73;;;17.70;99.90;;;;;;5074877;28;20588;-57
2022/09/05 03:29:26;;;;;;;4.40;3.80;;;17.80;99.90;;;;;;5059109;28;20539;-57
2022/09/05 03:32:22;;;;;;;6.03;4.17;;;17.80;99.90;;;;;;5074950;28;20827;-56
2022/09/05 03:35:21;;;;;;;5.30;3.40;;;17.70;99.90;;;;;;5074149;28;20990;-56
2022/09/05 03:38:29;;;;;;;5.73;3.27;;;17.50;99.90;;;;;;5074125;28;20474;-56
2022/09/05 03:41:12;;;;;;;4.00;3.60;;;17.40;99.90;;;;;;5074548;28;20568;-57
2022/09/05 03:44:06;;;;;;;3.20;3.00;;;17.40;99.90;;;;;;5074639;28;20459;-57
2022/09/05 03:47:14;;;;;;;4.37;3.97;;;17.40;99.90;;;;;;5073971;28;20440;-57
2022/09/05 03:50:10;;;;;;;3.83;3.50;;;17.40;99.90;;;;;;5073811;28;20472;-57
2022/09/05 03:52:49;;;;;;;4.37;3.60;;;17.30;99.90;;;;;;5073869;28;20468;-57
2022/09/05 03:55:54;;;;;;;3.63;3.33;;;17.30;99.90;;;;;;5073851;28;20435;-56
2022/09/05 03:58:42;;;;;;;7.17;3.40;;;17.40;99.90;;;;;;5073252;28;20469;-56
2022/09/05 04:01:12;;;;;;;4.20;3.53;;;17.30;99.90;;;;;;5073858;28;20518;-57
2022/09/05 04:03:44;;;;;;;4.73;3.77;;;17.30;99.90;;;;;;5073770;28;20406;-57
2022/09/05 04:06:19;;;;;;;4.40;3.50;;;17.30;99.90;;;;;;5073682;28;20891;-56
2022/09/05 04:08:51;;;;;;;3.73;2.97;;;17.30;99.90;;;;;;5073875;28;20424;-56
2022/09/05 04:11:28;;;;;;;11.13;4.23;;;17.20;99.90;;;;;;5073959;28;20474;-57
2022/09/05 04:13:59;;;;;;;4.33;4.03;;;17.20;99.90;;;;;;5073673;28;20431;-57
2022/09/05 04:16:31;;;;;;;3.80;3.50;;;17.10;99.90;;;;;;5073712;28;20826;-58
2022/09/05 04:19:10;;;;;;;3.80;3.50;;;17.20;99.90;;;;;;5073473;28;20516;-57
2022/09/05 04:21:45;;;;;;;3.87;3.43;;;17.20;99.90;;;;;;5073322;28;20470;-56
2022/09/05 04:24:19;;;;;;;6.67;3.73;;;17.00;99.90;;;;;;5073818;28;20432;-56
2022/09/05 04:27:32;;;;;;;5.17;3.90;;;16.90;99.90;;;;;;5073910;28;20530;-56
2022/09/05 04:30:01;;;;;;;4.37;3.70;;;17.00;99.90;;;;;;5073708;28;20435;-57
2022/09/05 04:32:40;;;;;;;4.83;4.40;;;17.10;99.90;;;;;;5073548;28;20479;-57
2022/09/05 04:35:25;;;;;;;3.67;3.37;;;17.30;99.90;;;;;;5073730;28;20433;-57
2022/09/05 04:37:58;;;;;;;4.40;4.00;;;17.40;99.90;;;;;;5073506;28;20828;-57
2022/09/05 04:40:38;;;;;;;4.20;3.80;;;17.70;99.90;;;;;;5073608;28;20852;-57
2022/09/05 04:43:10;;;;;;;8.37;4.27;;;17.50;99.90;;;;;;5073458;28;20432;-56
2022/09/05 04:45:41;;;;;;;4.33;4.00;;;17.40;99.90;;;;;;5073418;28;20458;-57
2022/09/05 04:48:13;;;;;;;4.27;3.87;;;17.20;99.90;;;;;;5072990;28;20512;-56
2022/09/05 04:51:02;;;;;;;4.13;3.67;;;17.10;99.90;;;;;;5073496;28;20817;-56
2022/09/05 04:53:41;;;;;;;4.40;4.00;;;17.20;99.90;;;;;;5073406;28;20783;-56
2022/09/05 04:56:15;;;;;;;4.07;3.77;;;17.10;99.90;;;;;;5073656;28;20511;-56
2022/09/05 04:58:49;;;;;;;4.10;3.70;;;17.10;99.90;;;;;;5072948;28;20431;-57
2022/09/05 05:01:22;;;;;;;4.10;3.80;;;17.40;99.90;;;;;;5073272;28;20901;-59
2022/09/05 05:03:50;;;;;;;4.90;4.50;;;17.80;99.90;;;;;;5073102;28;20409;-57
2022/09/05 05:06:25;;;;;;;4.50;3.80;;;17.90;99.90;;;;;;5073290;28;20854;-56
2022/09/05 05:08:58;;;;;;;4.27;3.90;;;18.10;99.90;;;;;;5073407;28;20462;-56
2022/09/05 05:11:43;;;;;;;4.50;4.10;;;17.80;99.90;;;;;;5076437;28;20568;-56
2022/09/05 05:14:17;;;;;;;6.93;4.50;;;17.90;99.90;;;;;;5077113;28;20803;-56
2022/09/05 05:16:52;;;;;;;4.13;3.70;;;17.70;99.90;;;;;;5077111;28;20552;-56
2022/09/05 05:19:25;;;;;;;5.33;4.27;;;17.70;99.90;;;;;;5077115;28;20429;-56
2022/09/05 05:21:56;;;;;;;7.10;4.13;;;17.70;99.90;;;;;;5076773;28;20460;-57
2022/09/05 05:24:27;;;;;;;4.80;4.40;;;17.70;99.90;;;;;;5076744;28;20486;-56
2022/09/05 05:27:03;;;;;;;4.30;3.90;;;17.90;99.90;;;;;;5077131;28;20599;-56
2022/09/05 05:29:43;;;;;;;7.13;4.30;;;17.80;99.90;;;;;;5076927;28;20446;-57
2022/09/05 05:32:18;;;;;;;5.33;4.00;;;17.70;99.90;;;;;;5076755;28;20501;-57
2022/09/05 05:34:50;;;;;;;5.00;4.30;;;17.70;99.90;;;;;;5076796;28;20456;-56
2022/09/05 05:37:23;;;;;;;9.97;4.97;;;17.80;99.90;;;;;;5076385;28;20544;-56
2022/09/05 05:40:02;;;;;;;7.90;4.90;;;17.70;99.90;;;;;;5076353;28;20482;-57
2022/09/05 05:42:30;;;;;;;4.10;3.80;;;17.90;99.90;;;;;;5076551;28;20514;-57
2022/09/05 05:44:59;;;;;;;5.00;4.13;;;18.00;99.90;;;;;;5076254;28;20444;-56
2022/09/05 05:47:30;;;;;;;5.13;4.50;;;18.00;99.90;;;;;;5076540;28;20435;-56
2022/09/05 05:50:06;;;;;;;5.90;4.90;;;18.00;99.90;;;;;;5076404;28;20429;-56
2022/09/05 05:53:27;;;;;;;5.50;4.00;;;18.00;99.90;;;;;;5076044;28;20470;-57
2022/09/05 05:56:23;;;;;;;5.73;4.60;;;18.10;99.90;;;;;;5032627;28;20541;-57
2022/09/05 05:59:07;;;;;;;5.57;5.10;;;18.10;99.90;;;;;;5074389;28;20558;-58
2022/09/05 06:02:15;;;;;;;7.47;5.00;;;18.10;99.90;;;;;;5076202;28;20551;-57
2022/09/05 06:05:18;;;;;;;4.47;4.07;;;18.30;99.90;;;;;;5054952;28;20436;-57
2022/09/05 06:07:54;;;;;;;9.87;5.50;;;18.20;99.90;;;;;;5075862;28;20427;-57
2022/09/05 06:11:04;;;;;;;9.17;4.83;;;18.40;99.90;;;;;;5075830;28;20420;-58
2022/09/05 06:14:09;;;;;;;6.27;4.67;;;18.40;99.90;;;;;;5075422;28;20485;-57
2022/09/05 06:17:04;;;;;;;8.53;5.73;;;18.30;99.90;;;;;;5076290;28;20855;-57
2022/09/05 06:20:04;;;;;;;6.70;4.43;;;18.30;99.90;;;;;;5049449;28;20775;-57
2022/09/05 06:23:07;;;;;;;7.10;5.00;;;18.40;99.90;;;;;;5074527;28;21035;-56
2022/09/05 06:26:25;;;;;;;5.33;4.67;;;18.40;99.90;;;;;;5075642;28;20512;-57
2022/09/05 06:29:05;;;;;;;6.40;5.40;;;18.50;99.90;;;;;;5070562;28;20484;-58
2022/09/05 06:31:58;;;;;;;6.50;5.23;;;18.40;99.90;;;;;;5075804;28;20551;-56
2022/09/05 06:34:43;;;;;;;5.80;5.00;;;18.40;99.90;;;;;;5075370;28;20439;-58
2022/09/05 06:37:21;;;;;;;7.40;5.43;;;18.60;99.90;;;;;;5075138;28;20503;-58
2022/09/05 06:40:06;;;;;;;5.73;5.23;;;18.50;99.90;;;;;;5075341;28;20435;-57
2022/09/05 06:42:47;;;;;;;8.57;5.60;;;18.50;99.90;;;;;;5075020;28;20541;-58
2022/09/05 06:45:43;;;;;;;13.03;5.70;;;18.60;99.90;;;;;;5075247;28;20425;-57
2022/09/05 06:48:16;;;;;;;6.60;5.20;;;18.70;99.90;;;;;;5062570;28;20967;-58
2022/09/05 06:51:12;;;;;;;6.60;4.83;;;18.70;99.90;;;;;;5075395;28;20494;-57
2022/09/05 06:54:09;;;;;;;6.00;5.10;;;18.70;99.90;;;;;;5074831;28;20440;-57
2022/09/05 06:56:58;;;;;;;5.10;4.60;;;18.80;99.90;;;;;;5074852;28;20468;-57
2022/09/05 06:59:54;;;;;;;14.60;5.07;;;18.90;99.90;;;;;;5075066;28;20542;-58
2022/09/05 07:02:30;;;;;;;7.20;5.50;;;19.00;99.90;;;;;;5074699;28;20551;-57
2022/09/05 07:05:09;;;;;;;6.30;5.10;;;19.10;99.90;;;;;;5075005;28;20432;-57
2022/09/05 07:07:42;;;;;;;6.40;5.77;;;19.20;99.90;;;;;;5074379;28;20507;-57
2022/09/05 07:10:16;;;;;;;6.00;4.27;;;19.20;99.90;;;;;;5074716;28;20511;-56
2022/09/05 07:12:50;;;;;;;10.87;5.73;;;19.20;99.90;;;;;;5075012;28;20522;-57
2022/09/05 07:15:31;;;;;;;10.53;5.83;;;19.20;99.90;;;;;;5074517;28;20787;-56
2022/09/05 07:18:07;;;;;;;5.50;4.53;;;19.20;99.90;;;;;;5074443;28;20555;-56
2022/09/05 07:20:42;;;;;;;5.53;4.93;;;19.30;99.90;;;;;;5074373;28;20471;-57
2022/09/05 07:23:19;;;;;;;7.87;5.30;;;19.40;99.90;;;;;;5074301;28;20510;-57
2022/09/05 07:25:50;;;;;;;5.07;4.47;;;19.50;99.90;;;;;;5074752;28;20447;-57
2022/09/05 07:28:20;;;;;;;6.47;5.63;;;19.60;99.90;;;;;;5074390;28;20464;-57
2022/09/05 07:30:50;;;;;;;5.27;4.23;;;19.70;99.90;;;;;;5074445;28;20575;-56
2022/09/05 07:33:21;;;;;;;5.37;4.47;;;19.80;99.90;;;;;;5074218;28;20444;-57
2022/09/05 07:35:50;;;;;;;5.57;5.07;;;20.00;99.90;;;;;;5074657;28;20505;-56
2022/09/05 07:38:21;;;;;;;9.67;5.17;;;20.40;99.90;;;;;;5073975;28;20563;-57
2022/09/05 07:40:53;;;;;;;7.83;5.30;;;20.50;99.90;;;;;;5073910;28;20471;-56
2022/09/05 07:43:27;;;;;;;5.83;5.00;;;20.40;99.90;;;;;;5073914;28;20767;-56
2022/09/05 07:46:10;;;;;;;4.03;3.70;;;20.50;99.90;;;;;;5074430;28;20452;-56
2022/09/05 07:48:40;;;;;;;7.43;4.27;;;20.90;99.90;;;;;;5073709;28;20869;-57
2022/09/05 07:51:12;;;;;;;5.13;4.10;;;21.30;99.90;;;;;;5073699;28;20464;-57
2022/09/05 07:53:43;;;;;;;6.80;4.20;;;21.20;99.90;;;;;;5073572;28;20527;-56
2022/09/05 07:56:11;;;;;;;7.70;6.13;;;21.00;99.90;;;;;;5073519;28;20449;-56
2022/09/05 07:58:44;;;;;;;6.40;4.40;;;21.00;99.90;;;;;;5073945;28;20506;-56
2022/09/05 08:01:13;;;;;;;4.77;4.33;;;20.90;99.90;;;;;;5073901;28;20495;-57
2022/09/05 08:03:42;;;;;;;6.30;4.63;;;20.80;99.90;;;;;;5073463;28;20451;-56
2022/09/05 08:06:16;;;;;;;5.33;4.83;;;20.80;99.90;;;;;;5073548;28;20429;-56
2022/09/05 08:08:53;;;;;;;5.80;4.10;;;21.00;99.90;;;;;;5073963;28;20421;-57
2022/09/05 08:11:24;;;;;;;4.40;4.00;;;21.10;99.90;;;;;;5073760;28;20491;-56
2022/09/05 08:13:58;;;;;;;5.33;3.90;;;21.20;99.90;;;;;;5073166;28;20425;-57
2022/09/05 08:16:26;;;;;;;4.80;4.30;;;21.30;99.90;;;;;;5073422;28;20437;-57
2022/09/05 08:18:59;;;;;;;4.40;3.87;;;21.50;99.90;;;;;;5073542;28;20484;-57
2022/09/05 08:21:33;;;;;;;9.27;4.47;;;21.70;99.90;;;;;;5073366;28;20452;-56
2022/09/05 08:24:08;;;;;;;4.23;3.87;;;21.80;99.90;;;;;;5073105;28;20506;-56
2022/09/05 08:26:42;;;;;;;7.63;4.57;;;21.90;99.90;;;;;;5073134;28;20487;-56
2022/09/05 08:29:25;;;;;;;7.17;4.47;;;22.00;99.90;;;;;;5073441;28;20424;-56
2022/09/05 08:31:56;;;;;;;4.90;3.70;;;21.90;99.90;;;;;;5073004;28;20884;-56
2022/09/05 08:34:36;;;;;;;6.37;4.03;;;22.00;99.90;;;;;;5073479;28;20436;-56
2022/09/05 08:37:04;;;;;;;6.13;4.13;;;22.20;99.90;;;;;;5073245;28;20516;-57
2022/09/05 08:39:33;;;;;;;4.73;4.23;;;22.30;99.90;;;;;;5073098;28;20480;-56
2022/09/05 08:42:14;;;;;;;5.13;4.60;;;22.30;99.90;;;;;;5072651;28;20482;-56
2022/09/05 08:45:01;;;;;;;5.00;3.80;;;22.40;99.90;;;;;;5072672;28;20429;-56
2022/09/05 08:47:35;;;;;;;4.70;4.20;;;22.70;99.90;;;;;;5072597;28;20428;-57
2022/09/05 08:50:22;;;;;;;7.13;3.53;;;23.70;99.90;;;;;;5073417;28;20440;-57
2022/09/05 08:53:19;;;;;;;4.50;3.50;;;24.80;99.90;;;;;;5072733;28;20432;-56
2022/09/05 08:55:54;;;;;;;3.87;3.47;;;25.70;99.90;;;;;;5066967;28;20452;-57
2022/09/05 08:58:55;;;;;;;10.17;3.80;;;26.70;99.90;;;;;;5073157;28;20502;-56
2022/09/05 09:01:30;;;;;;;5.50;4.00;;;27.50;99.90;;;;;;5072655;28;20518;-56
2022/09/05 09:04:16;;;;;;;4.13;3.73;;;27.70;99.90;;;;;;5073114;28;20428;-56
2022/09/05 09:07:13;;;;;;;3.90;3.50;;;27.90;99.90;;;;;;5073042;28;20507;-58
2022/09/05 09:09:49;;;;;;;3.73;3.40;;;28.20;99.90;;;;;;5070250;28;20449;-56
2022/09/05 09:12:47;;;;;;;3.63;2.97;;;28.60;99.90;;;;;;5072933;28;20681;-57
2022/09/05 09:15:23;;;;;;;4.00;3.20;;;28.50;99.60;;;;;;5059729;28;21026;-56
2022/09/05 09:17:53;;;;;;;5.03;4.13;;;28.90;99.50;;;;;;5072943;28;20428;-57
2022/09/05 09:20:32;;;;;;;5.30;3.50;;;28.90;98.70;;;;;;5072822;28;20455;-57
2022/09/05 09:23:04;;;;;;;5.70;3.60;;;29.50;97.80;;;;;;5072599;28;20429;-56
2022/09/05 09:25:38;;;;;;;4.57;3.53;;;30.00;97.30;;;;;;5072822;28;20425;-57
2022/09/05 09:28:41;;;;;;;4.27;2.87;;;30.10;96.10;;;;;;5072678;28;20405;-56
2022/09/05 09:31:15;;;;;;;3.53;3.23;;;30.00;95.80;;;;;;5072831;28;20500;-57
2022/09/05 09:33:49;;;;;;;5.27;3.63;;;30.10;95.10;;;;;;5072889;28;20503;-57
2022/09/05 09:36:56;;;;;;;5.93;3.70;;;30.20;94.90;;;;;;5072701;28;20459;-57
2022/09/05 09:39:33;;;;;;;4.23;2.90;;;30.70;94.90;;;;;;5051600;28;20566;-57
2022/09/05 09:42:19;;;;;;;3.80;3.00;;;30.90;94.80;;;;;;5072357;28;21049;-57
2022/09/05 09:45:21;;;;;;;5.60;2.80;;;31.40;93.60;;;;;;5072212;28;20420;-58
2022/09/05 09:48:11;;;;;;;4.73;3.10;;;31.00;93.10;;;;;;5072423;28;20483;-57
2022/09/05 09:50:59;;;;;;;3.70;3.40;;;31.20;92.90;;;;;;5072743;28;20424;-57
2022/09/05 09:53:42;;;;;;;4.23;2.87;;;31.10;92.40;;;;;;5072507;28;20428;-56
2022/09/05 09:56:56;;;;;;;5.03;3.87;;;31.30;92.40;;;;;;5072621;28;20438;-58
2022/09/05 10:00:04;;;;;;;7.20;3.23;;;31.90;91.90;;;;;;5075852;28;20538;-57
2022/09/05 10:03:00;;;;;;;3.43;3.13;;;32.10;90.70;;;;;;5076213;28;20470;-57
2022/09/05 10:05:57;;;;;;;4.40;3.70;;;32.10;90.90;;;;;;5075785;28;20907;-57
2022/09/05 10:08:56;;;;;;;3.37;3.13;;;32.00;89.70;;;;;;5075585;28;20958;-57
2022/09/05 10:11:38;;;;;;;4.70;3.30;;;32.20;90.00;;;;;;5075338;28;20471;-57
2022/09/05 10:14:56;;;;;;;3.80;2.83;;;31.50;89.10;;;;;;5075601;28;20435;-58
2022/09/05 10:17:42;;;;;;;5.93;3.03;;;31.90;86.80;;;;;;5070576;28;20451;-57
2022/09/05 10:20:29;;;;;;;4.50;3.13;;;32.00;88.60;;;;;;5075660;28;20468;-58
2022/09/05 10:23:22;;;;;;;4.87;3.23;;;32.90;85.60;;;;;;5075726;28;20853;-57
2022/09/05 10:26:21;;;;;;;6.20;3.40;;;32.50;86.20;;;;;;5075428;28;20506;-57
2022/09/05 10:29:03;;;;;;;4.80;3.33;;;32.80;84.70;;;;;;5075805;28;20439;-56
2022/09/05 10:31:55;;;;;;;6.03;3.20;;;32.50;83.20;;;;;;5075603;28;20555;-56
2022/09/05 10:34:25;;;;;;;6.73;3.30;;;32.50;85.90;;;;;;5075735;28;20486;-57
2022/09/05 10:37:01;;;;;;;4.20;3.10;;;32.50;83.20;;;;;;5074970;28;20448;-57
2022/09/05 10:39:30;;;;;;;3.93;3.10;;;33.00;80.50;;;;;;5075263;28;20463;-57
2022/09/05 10:42:03;;;;;;;3.87;2.63;;;32.60;83.20;;;;;;5075564;28;20571;-57
2022/09/05 10:44:39;;;;;;;3.20;2.83;;;33.20;80.60;;;;;;5075098;28;20436;-57
2022/09/05 10:47:31;;;;;;;3.57;3.27;;;33.00;80.50;;;;;;5075386;28;20427;-57
2022/09/05 10:50:08;;;;;;;3.97;3.00;;;32.80;82.30;;;;;;5068575;28;20462;-57
2022/09/05 10:52:37;;;;;;;6.23;3.30;;;33.30;78.70;;;;;;5074732;28;20467;-57
2022/09/05 10:55:17;;;;;;;3.20;2.90;;;33.00;78.50;;;;;;5074842;28;20491;-57
2022/09/05 10:57:58;;;;;;;10.13;3.03;;;32.70;83.20;;;;;;5075236;28;20433;-57
2022/09/05 11:00:45;;;;;;;5.10;3.47;;;33.10;79.80;;;;;;5074968;28;20468;-57
2022/09/05 11:03:18;;;;;;;3.07;2.80;;;33.50;76.50;;;;;;5075056;28;20432;-57
2022/09/05 11:05:51;;;;;;;2.93;2.47;;;33.80;75.70;;;;;;5074730;28;20438;-57
2022/09/05 11:08:30;;;;;;;3.63;3.07;;;34.50;75.00;;;;;;5074301;28;20456;-57
2022/09/05 11:11:08;;;;;;;2.90;2.70;;;34.60;71.30;;;;;;5074762;28;20486;-57
2022/09/05 11:13:45;;;;;;;3.00;2.80;;;33.90;73.10;;;;;;5074753;28;20535;-56
2022/09/05 11:16:24;;;;;;;3.10;2.80;;;34.60;71.30;;;;;;5074726;28;20436;-57
2022/09/05 11:19:02;;;;;;;3.00;2.70;;;34.40;69.50;;;;;;5074614;28;20463;-57
2022/09/05 11:21:43;;;;;;;3.83;3.53;;;33.70;70.10;;;;;;5074318;28;20467;-57
2022/09/05 11:24:23;;;;;;;3.23;3.03;;;33.10;70.50;;;;;;5073981;28;20933;-57
2022/09/05 11:26:57;;;;;;;2.90;2.70;;;33.30;69.70;;;;;;5074776;28;20455;-57
2022/09/05 11:29:35;;;;;;;3.00;2.70;;;33.10;70.40;;;;;;5074268;28;20792;-57
2022/09/05 11:32:22;;;;;;;2.83;2.63;;;33.70;70.00;;;;;;5074427;28;20583;-57
2022/09/05 11:35:10;;;;;;;2.90;2.70;;;33.60;66.80;;;;;;5074537;28;20902;-57
2022/09/05 11:38:05;;;;;;;3.00;2.80;;;33.60;67.40;;;;;;5074101;28;20928;-57
2022/09/05 11:40:46;;;;;;;2.90;2.23;;;33.70;67.00;;;;;;5073734;28;20480;-57
2022/09/05 11:43:53;;;;;;;3.30;3.00;;;32.80;68.10;;;;;;5073921;28;20962;-57
2022/09/05 11:46:32;;;;;;;5.20;3.23;;;31.90;68.60;;;;;;5043641;28;20479;-56
2022/09/05 11:49:34;;;;;;;4.10;2.97;;;30.90;70.50;;;;;;5073609;28;20816;-57
2022/09/05 11:52:40;;;;;;;3.90;3.50;;;31.10;73.70;;;;;;5073534;28;20522;-56
2022/09/05 11:55:40;;;;;;;3.20;2.90;;;31.90;69.40;;;;;;5074225;28;20475;-57
2022/09/05 11:58:28;;;;;;;3.87;3.10;;;32.20;68.10;;;;;;5074312;28;20428;-58
2022/09/05 12:01:05;;;;;;;3.20;2.80;;;32.70;65.60;;;;;;5073961;28;20470;-57
2022/09/05 12:03:55;;;;;;;3.10;2.80;;;33.00;64.50;;;;;;5073973;28;20503;-57
2022/09/05 12:06:55;;;;;;;2.80;2.50;;;33.60;67.20;;;;;;5073846;28;20434;-57
2022/09/05 12:09:37;;;;;;;3.13;2.83;;;33.80;62.60;;;;;;5073707;28;20458;-58
2022/09/05 12:12:25;;;;;;;2.90;2.70;;;34.00;64.00;;;;;;5073525;28;20479;-58
2022/09/05 12:15:11;;;;;;;3.60;2.70;;;34.10;60.40;;;;;;5073216;28;20761;-57
2022/09/05 12:17:52;;;;;;;3.90;2.90;;;33.50;63.50;;;;;;5073369;28;20481;-58
2022/09/05 12:20:29;;;;;;;2.70;2.50;;;33.00;61.90;;;;;;5072359;28;20470;-58
2022/09/05 12:23:01;;;;;;;3.33;2.70;;;32.90;62.20;;;;;;5073236;28;20531;-57
2022/09/05 12:25:36;;;;;;;2.70;2.50;;;33.90;61.80;;;;;;5073223;28;20523;-57
2022/09/05 12:28:07;;;;;;;2.70;2.50;;;34.20;62.70;;;;;;5073753;28;20423;-57
2022/09/05 12:30:38;;;;;;;2.47;2.27;;;34.10;60.90;;;;;;5073332;28;20459;-58
2022/09/05 12:33:21;;;;;;;2.50;2.30;;;33.90;60.40;;;;;;5073010;28;20435;-57
2022/09/05 12:36:02;;;;;;;5.67;2.67;;;34.30;60.90;;;;;;5072951;28;20903;-57
2022/09/05 12:38:38;;;;;;;2.73;2.53;;;34.60;60.40;;;;;;5073130;28;20479;-57
2022/09/05 12:41:10;;;;;;;2.90;2.60;;;33.40;58.60;;;;;;5073126;28;20831;-57
2022/09/05 12:43:42;;;;;;;2.50;2.30;;;33.00;58.90;;;;;;5073088;28;20430;-57
2022/09/05 12:46:17;;;;;;;2.97;2.73;;;33.40;59.20;;;;;;5072946;28;20475;-57
2022/09/05 12:48:53;;;;;;;2.50;2.30;;;33.80;58.90;;;;;;5072111;28;20561;-57
2022/09/05 12:51:27;;;;;;;2.67;2.47;;;33.50;57.50;;;;;;5072748;28;20545;-57
2022/09/05 12:53:58;;;;;;;4.00;2.87;;;33.10;59.00;;;;;;5073119;28;20428;-58
2022/09/05 12:56:32;;;;;;;2.77;2.57;;;32.30;60.30;;;;;;5073158;28;20768;-58
2022/09/05 12:59:03;;;;;;;2.80;2.60;;;32.60;60.80;;;;;;5073121;28;20607;-57
2022/09/05 13:01:32;;;;;;;2.93;2.73;;;32.50;59.30;;;;;;5072895;28;20460;-57
2022/09/05 13:04:02;;;;;;;2.87;2.67;;;32.10;59.70;;;;;;5073169;28;20450;-57
2022/09/05 13:06:37;;;;;;;4.63;2.30;;;31.90;60.10;;;;;;5073110;28;20894;-57
2022/09/05 13:09:09;;;;;;;2.90;2.63;;;32.10;60.30;;;;;;5072818;28;20424;-57
2022/09/05 13:11:47;;;;;;;2.80;2.60;;;32.50;60.10;;;;;;5073033;28;20464;-57
2022/09/05 13:14:22;;;;;;;3.40;2.83;;;32.40;59.20;;;;;;5073030;28;20510;-57
2022/09/05 13:16:51;;;;;;;3.23;2.60;;;32.40;59.30;;;;;;5072750;28;20903;-58
2022/09/05 13:19:39;;;;;;;3.33;3.13;;;32.70;59.80;;;;;;5072533;28;20567;-57
2022/09/05 13:22:09;;;;;;;4.20;2.77;;;32.30;59.10;;;;;;5072603;28;21072;-58
2022/09/05 13:24:40;;;;;;;2.90;2.70;;;32.40;58.30;;;;;;5073013;28;20425;-57
2022/09/05 13:27:13;;;;;;;3.17;2.83;;;32.40;58.50;;;;;;5072961;28;20482;-57
2022/09/05 13:29:50;;;;;;;2.70;2.50;;;32.70;59.20;;;;;;5072968;28;20512;-57
2022/09/05 13:32:24;;;;;;;2.67;2.47;;;32.20;58.30;;;;;;5075662;28;20477;-57
2022/09/05 13:34:55;;;;;;;4.80;2.67;;;31.80;58.90;;;;;;5076411;28;20451;-57
2022/09/05 13:37:31;;;;;;;12.00;2.70;;;31.90;59.20;;;;;;5076321;28;20432;-56
2022/09/05 13:40:03;;;;;;;4.83;2.90;;;32.00;59.30;;;;;;5076536;28;20562;-57
2022/09/05 13:42:33;;;;;;;3.23;2.93;;;32.10;59.40;;;;;;5076759;28;20472;-56
2022/09/05 13:45:01;;;;;;;2.73;2.53;;;32.20;59.30;;;;;;5076829;28;20478;-56
2022/09/05 13:47:59;;;;;;;2.40;2.20;;;31.90;59.10;;;;;;5076096;28;20467;-57
2022/09/05 13:50:30;;;;;;;3.33;2.67;;;31.60;59.20;;;;;;5075886;28;20787;-56
2022/09/05 13:53:03;;;;;;;3.20;3.00;;;31.60;59.70;;;;;;5076194;28;20462;-57
2022/09/05 13:55:40;;;;;;;3.33;2.83;;;31.10;59.50;;;;;;5076312;28;20503;-57
2022/09/05 13:58:13;;;;;;;3.97;2.83;;;31.20;59.60;;;;;;5076089;28;20428;-57
2022/09/05 14:01:16;;;;;;;2.73;2.50;;;31.10;59.60;;;;;;5075988;28;20507;-56